Aeroporto :
LOGIN :

Iscrizione | Disclaimer

   EN    FR    IT 

 










Sommario :    VFR   VFR Marginale   IFR   IFR Intensivo   IFR Molto Intensivo
Visibilità : 
Base nubi : 
>= 8 km
>= 3000ft
5 / 8 km
1000 / 3000 ft
1500m / 5 km
500 / 1000 ft
800 / 1500m
200 / 500 ft
< 800m
< 200 ft
Simboli :   Temporali  Nebbia  Neve Forte  Precipitazioni Forti  Vento > 20 kt
SIGMETs :   Varie  Temporali  Ghiacco  Turbolenza  Onda orograficha  Ceneri Vulcaniche






- Altitudine del aeroporto : 33 ft
- Codice IATA : MHZ


EGUN - RAF Mildenhall

ULTIMO METAR :
  • 181056Z 03012KT 8000 RA BR FEW009 OVC014 13/13 A2993 RMK AO2A CIG 013 RWY10 SLP138 P0024 T01330133

METARs OBSOLETI :
  • 181026Z 04010KT 4400 -RA BR OVC010 14/14 A2993 RMK AO2A VIS 4400V6000 CIG 009 RWY10 SLP138
  • 180956Z COR 02008KT 6000 RA BR OVC010 14/14 A2995 RMK AO2A CIG 008V010 SLP145 P0009 T01350135 COR 0959
  • 180856Z 01007KT 5000 +RA BR OVC009 13/13 A2996 RMK AO2A SLP149 P0010 60010 T01320132 58001

TAF AMD TAF EGUN
Valido dal 18 a 09 ore il 19 a 10 ore UTC


180920Z 1809/1910 03010G15KT 8000 RA BR FEW003 BKN008 OVC010 510008 QNH2986INS
TEMPO 1812/1818 03015G25KT 3200 SHRA BR VCTS SCT008 BKN012 OVC025CB
BECMG 1819/1820 36012KT 5000 -SHRA BR FEW003 BKN006 OVC010 510008 QNH2983INS
BECMG 1822/1823 34009KT 3200 -DZ BR BKN002 OVC005 510008 QNH2986INS
TEMPO 1900/1906 0800 DZ FG VV001
BECMG 1906/1907 05009KT 8000 BR FEW004 BKN009 OVC018 510006 QNH2992INS
BECMG 1909/1910 08012KT 9000 BR VCSH SCT009 BKN018 OVC100 510006 QNH2998INS TX16/1812Z TN12/1901Z



MetMap, La meteo Aeronautica in un colpo d'occhio ! - Copyright ORBIFLY Dicembre 2007 - Disclaimer

ORBIFLY MET'MAP TEAM :

Programmazione e sviluppo : Alexandra Zaïnal
Concezione : Baudouin d'Aumeries
Aiuto per la programmazione : Marc-Olivier Méhu
Supporto tecnico e logistico : Manuel Goepfert
Aiuto per la traduzione : Arnaldo La Scala

Contatto : metmap@orbifly.com




FONTI E CREDITI :

   NOAA